createdAt,value
2022-11-11T00:01:27.251Z,99.52
2022-11-11T00:03:57.644Z,99.53
2022-11-11T00:06:27.122Z,99.49
2022-11-11T00:08:55.525Z,99.63
2022-11-11T00:11:25.802Z,99.91
2022-11-11T00:13:55.597Z,99.67
2022-11-11T00:16:24.349Z,99.71
2022-11-11T00:19:09.958Z,97.69
2022-11-11T00:22:00.708Z,97.99
2022-11-11T00:24:47.444Z,99.06
2022-11-11T00:27:17.389Z,99.49
2022-11-11T00:29:49.292Z,99.48
2022-11-11T00:32:27.849Z,99.42
2022-11-11T00:35:15.958Z,98.60
2022-11-11T00:37:46.752Z,97.83
2022-11-11T00:40:16.774Z,97.13
2022-11-11T00:42:47.690Z,96.78
2022-11-11T00:45:16.418Z,96.86
2022-11-11T00:48:03.129Z,96.92
2022-11-11T00:50:50.088Z,96.88
2022-11-11T00:53:27.488Z,96.95
2022-11-11T00:55:56.571Z,97.01
2022-11-11T00:58:25.240Z,97.15
2022-11-11T01:00:55.531Z,96.78
2022-11-11T01:03:26.156Z,96.60
2022-11-11T01:05:55.062Z,96.76
2022-11-11T01:08:29.813Z,96.92
2022-11-11T01:10:58.375Z,97.14
2022-11-11T01:13:27.367Z,96.46
2022-11-11T01:16:00.064Z,96.17
2022-11-11T01:18:31.360Z,96.05
2022-11-11T01:21:07.346Z,95.98
2022-11-11T01:23:38.097Z,96.06
2022-11-11T01:26:08.836Z,96.34
2022-11-11T01:28:37.157Z,96.43
2022-11-11T01:31:06.262Z,96.88
2022-11-11T01:33:34.907Z,97.04
2022-11-11T01:36:07.748Z,96.86
2022-11-11T01:38:37.522Z,96.86
2022-11-11T01:41:26.528Z,96.89
2022-11-11T01:43:56.023Z,97.54
2022-11-11T01:46:28.864Z,97.70
2022-11-11T01:49:21.289Z,97.77
2022-11-11T01:51:52.526Z,97.81
2022-11-11T01:54:26.521Z,98.02
2022-11-11T01:57:01.051Z,97.83
2022-11-11T01:59:29.834Z,98.22
2022-11-11T02:01:58.213Z,98.39
2022-11-11T02:04:44.190Z,98.58
2022-11-11T02:07:14.792Z,99.00
2022-11-11T02:09:47.091Z,99.06
2022-11-11T02:12:34.788Z,98.85
2022-11-11T02:15:04.096Z,99.21
2022-11-11T02:17:33.353Z,98.89
2022-11-11T02:20:04.760Z,98.94
2022-11-11T02:22:40.495Z,98.80
2022-11-11T02:25:11.353Z,99.10
2022-11-11T02:27:42.026Z,99.13
2022-11-11T02:30:17.121Z,99.37
2022-11-11T02:32:53.263Z,99.63
2022-11-11T02:35:22.563Z,99.73
2022-11-11T02:37:53.773Z,99.98
2022-11-11T02:40:29.215Z,99.63
2022-11-11T02:42:59.024Z,99.84
2022-11-11T02:45:31.461Z,99.76
2022-11-11T02:48:00.376Z,99.99
2022-11-11T02:50:30.753Z,99.99
2022-11-11T02:53:01.391Z,99.99
2022-11-11T02:55:31.060Z,99.99
2022-11-11T02:58:02.966Z,99.99
2022-11-11T03:00:31.791Z,99.99
2022-11-11T03:03:00.225Z,99.99
2022-11-11T03:05:29.385Z,99.95
2022-11-11T03:08:00.260Z,99.76
2022-11-11T03:10:30.309Z,99.99
2022-11-11T03:13:00.285Z,99.99
2022-11-11T03:15:28.663Z,99.99
2022-11-11T03:17:55.995Z,99.99
2022-11-11T03:20:43.584Z,99.99
2022-11-11T03:23:14.347Z,99.99
2022-11-11T03:25:43.175Z,99.95
2022-11-11T03:28:14.113Z,99.81
2022-11-11T03:30:44.107Z,99.53
2022-11-11T03:33:13.724Z,99.63
2022-11-11T03:35:45.309Z,99.73
2022-11-11T03:38:24.565Z,99.99
2022-11-11T03:40:53.900Z,99.99
2022-11-11T03:43:26.408Z,99.99
2022-11-11T03:45:56.140Z,99.99
2022-11-11T03:48:27.648Z,99.99
2022-11-11T03:50:56.026Z,99.99
2022-11-11T03:53:24.830Z,99.99
2022-11-11T03:55:54.767Z,99.99
2022-11-11T03:58:29.534Z,99.99
2022-11-11T04:00:57.372Z,99.99
2022-11-11T04:03:43.287Z,99.99
2022-11-11T04:06:34.980Z,99.99
2022-11-11T04:09:20.602Z,99.55
2022-11-11T04:11:49.124Z,98.74
2022-11-11T04:14:36.255Z,99.55
2022-11-11T04:17:04.592Z,99.44
2022-11-11T04:19:50.427Z,99.14
2022-11-11T04:22:19.357Z,99.43
2022-11-11T04:25:04.672Z,99.64
2022-11-11T04:27:36.559Z,99.80
2022-11-11T04:30:06.585Z,99.99
2022-11-11T04:32:40.153Z,99.99
2022-11-11T04:35:11.239Z,99.99
2022-11-11T04:37:47.093Z,99.99
2022-11-11T04:40:33.041Z,99.99
2022-11-11T04:43:02.518Z,99.99
2022-11-11T04:45:36.374Z,99.99
2022-11-11T04:48:05.154Z,99.99
2022-11-11T04:50:38.632Z,99.99
2022-11-11T04:53:07.879Z,99.99
2022-11-11T04:55:53.338Z,99.99
2022-11-11T04:58:23.189Z,99.99
2022-11-11T05:00:56.625Z,99.99
2022-11-11T05:03:26.176Z,99.99
2022-11-11T05:06:12.550Z,99.99
2022-11-11T05:09:00.603Z,99.99
2022-11-11T05:11:30.010Z,99.99
2022-11-11T05:14:16.396Z,99.99
2022-11-11T05:17:04.755Z,99.99
2022-11-11T05:19:58.771Z,99.99
2022-11-11T05:22:28.083Z,99.99
2022-11-11T05:25:14.166Z,99.99
2022-11-11T05:27:43.134Z,99.99
2022-11-11T05:30:12.454Z,99.99
2022-11-11T05:32:50.621Z,99.99
2022-11-11T05:35:22.534Z,99.99
2022-11-11T05:38:11.191Z,99.99
2022-11-11T05:40:39.408Z,99.99
2022-11-11T05:43:07.542Z,99.99
2022-11-11T05:45:35.953Z,99.99
2022-11-11T05:48:05.783Z,99.99
2022-11-11T05:50:34.729Z,99.99
2022-11-11T05:53:04.788Z,99.99
2022-11-11T05:55:32.859Z,99.64
2022-11-11T05:58:02.057Z,99.83
2022-11-11T06:00:30.086Z,99.99
2022-11-11T06:03:03.459Z,99.99
2022-11-11T06:05:33.253Z,99.99
2022-11-11T06:08:02.405Z,99.99
2022-11-11T06:10:31.613Z,99.99
2022-11-11T06:13:09.010Z,99.99
2022-11-11T06:15:37.975Z,99.99
2022-11-11T06:18:10.031Z,99.99
2022-11-11T06:20:42.917Z,99.99
2022-11-11T06:23:13.561Z,99.99
2022-11-11T06:26:00.487Z,99.99
2022-11-11T06:28:29.853Z,99.99
2022-11-11T06:30:58.417Z,99.99
2022-11-11T06:33:26.882Z,99.99
2022-11-11T06:35:57.951Z,99.99
2022-11-11T06:38:28.137Z,99.99
2022-11-11T06:40:57.032Z,99.99
2022-11-11T06:43:27.655Z,99.99
2022-11-11T06:45:59.624Z,99.99
2022-11-11T06:48:34.407Z,99.99
2022-11-11T06:51:07.529Z,99.99
2022-11-11T06:53:36.700Z,99.99
2022-11-11T06:56:04.649Z,99.99
2022-11-11T06:58:33.248Z,99.99
2022-11-11T07:01:05.174Z,99.99
2022-11-11T07:03:36.046Z,99.99
2022-11-11T07:06:06.099Z,99.99
2022-11-11T07:08:35.650Z,99.99
2022-11-11T07:11:12.495Z,99.99
2022-11-11T07:13:50.082Z,99.99
2022-11-11T07:16:19.681Z,99.99
2022-11-11T07:18:48.215Z,99.99
2022-11-11T07:21:17.773Z,99.99
2022-11-11T07:23:47.158Z,99.99
2022-11-11T07:26:17.433Z,99.99
2022-11-11T07:28:47.387Z,99.99
2022-11-11T07:31:18.279Z,99.99
2022-11-11T07:33:49.148Z,99.99
2022-11-11T07:36:21.073Z,99.99
2022-11-11T07:38:49.177Z,99.99
2022-11-11T07:41:19.859Z,99.99
2022-11-11T07:43:51.741Z,99.99
2022-11-11T07:46:19.673Z,99.99
2022-11-11T07:48:55.310Z,99.99
2022-11-11T07:51:28.040Z,99.99
2022-11-11T07:53:56.349Z,99.99
2022-11-11T07:56:25.388Z,99.99
2022-11-11T07:58:55.186Z,99.78
2022-11-11T08:01:24.547Z,99.92
2022-11-11T08:03:53.083Z,99.16
2022-11-11T08:06:27.198Z,98.92
2022-11-11T08:08:57.147Z,98.02
2022-11-11T08:11:50.688Z,97.72
2022-11-11T08:14:20.424Z,96.78
2022-11-11T08:16:48.873Z,96.90
2022-11-11T08:19:19.790Z,97.11
2022-11-11T08:21:53.461Z,96.42
2022-11-11T08:27:12.561Z,94.88
2022-11-11T08:29:41.050Z,94.23
2022-11-11T08:32:09.216Z,94.25
2022-11-11T08:34:37.258Z,93.87
2022-11-11T08:37:09.653Z,93.80
2022-11-11T08:39:40.467Z,92.73
2022-11-11T08:42:11.393Z,91.92
2022-11-11T08:44:39.581Z,90.38
2022-11-11T08:47:09.170Z,89.75
2022-11-11T08:49:39.344Z,89.51
2022-11-11T08:52:09.649Z,89.95
2022-11-11T08:54:38.878Z,88.80
2022-11-11T08:57:07.254Z,88.09
2022-11-11T08:59:35.381Z,86.70
2022-11-11T09:02:03.309Z,87.01
2022-11-11T09:04:44.687Z,85.67
2022-11-11T09:07:13.553Z,83.66
2022-11-11T09:09:43.001Z,83.67
2022-11-11T09:12:10.961Z,82.69
2022-11-11T09:14:39.227Z,81.13
2022-11-11T09:17:07.241Z,82.28
2022-11-11T09:19:35.297Z,81.41
2022-11-11T09:22:04.374Z,82.17
2022-11-11T09:24:32.497Z,80.92
2022-11-11T09:27:01.845Z,81.63
2022-11-11T09:29:29.933Z,81.78
2022-11-11T09:32:01.140Z,81.91
2022-11-11T09:34:29.101Z,79.95
2022-11-11T09:36:57.234Z,81.22
2022-11-11T09:39:25.481Z,82.36
2022-11-11T09:42:03.779Z,80.03
2022-11-11T09:44:43.438Z,81.12
2022-11-11T09:47:19.521Z,80.73
2022-11-11T09:50:02.089Z,80.51
2022-11-11T09:52:32.864Z,78.73
2022-11-11T09:55:05.239Z,77.46
2022-11-11T09:57:36.361Z,77.29
2022-11-11T10:00:20.278Z,77.53
2022-11-11T10:02:52.859Z,77.31
2022-11-11T10:05:23.743Z,77.38
2022-11-11T10:07:54.966Z,78.04
2022-11-11T10:10:31.981Z,77.76
2022-11-11T10:13:02.705Z,77.89
2022-11-11T10:15:36.796Z,76.62
2022-11-11T10:18:21.065Z,75.60
2022-11-11T10:20:50.544Z,75.80
2022-11-11T10:23:19.271Z,75.81
2022-11-11T10:25:50.820Z,75.93
2022-11-11T10:28:20.821Z,76.62
2022-11-11T10:30:52.272Z,76.10
2022-11-11T10:33:22.378Z,72.96
2022-11-11T10:35:51.843Z,71.84
2022-11-11T10:38:28.030Z,71.62
2022-11-11T10:40:58.619Z,70.70
2022-11-11T10:43:30.196Z,71.65
2022-11-11T10:46:03.471Z,70.94
2022-11-11T10:48:37.419Z,70.43
2022-11-11T10:51:10.191Z,69.46
2022-11-11T10:53:41.321Z,69.98
2022-11-11T10:56:14.362Z,72.63
2022-11-11T10:58:46.979Z,70.89
2022-11-11T11:01:19.399Z,71.46
2022-11-11T11:03:51.793Z,70.77
2022-11-11T11:06:31.277Z,71.50
2022-11-11T11:09:02.893Z,70.89
2022-11-11T11:11:38.872Z,71.29
2022-11-11T11:14:12.203Z,72.33
2022-11-11T11:16:45.016Z,71.63
2022-11-11T11:19:18.151Z,71.16
2022-11-11T11:21:53.409Z,70.21
2022-11-11T11:24:22.606Z,69.83
2022-11-11T11:26:51.936Z,70.26
2022-11-11T11:29:28.460Z,70.16
2022-11-11T11:32:09.624Z,71.71
2022-11-11T11:34:48.644Z,70.28
2022-11-11T11:37:18.164Z,71.22
2022-11-11T11:39:46.469Z,71.32
2022-11-11T11:42:33.592Z,71.67
2022-11-11T11:45:16.873Z,71.65
2022-11-11T11:48:09.424Z,71.66
2022-11-11T11:50:42.217Z,72.28
2022-11-11T11:53:21.450Z,71.99
2022-11-11T11:55:56.144Z,72.29
2022-11-11T11:58:31.906Z,72.85
2022-11-11T12:01:05.356Z,74.45
2022-11-11T12:03:44.892Z,73.40
2022-11-11T12:06:18.060Z,73.76
2022-11-11T12:08:53.840Z,73.81
2022-11-11T12:11:25.583Z,74.34
2022-11-11T12:14:02.715Z,74.29
2022-11-11T12:16:37.108Z,74.33
2022-11-11T12:19:28.812Z,73.55
2022-11-11T12:22:03.312Z,73.88
2022-11-11T12:24:37.217Z,73.83
2022-11-11T12:27:09.240Z,74.09
2022-11-11T12:29:46.609Z,74.33
2022-11-11T12:32:25.198Z,74.03
2022-11-11T12:35:06.096Z,73.85
2022-11-11T12:37:40.822Z,73.64
2022-11-11T12:40:18.965Z,73.07
2022-11-11T12:42:55.957Z,73.57
2022-11-11T12:45:25.564Z,72.73
2022-11-11T12:47:58.914Z,72.34
2022-11-11T12:50:35.248Z,71.96
2022-11-11T12:53:10.629Z,72.01
2022-11-11T12:55:42.660Z,71.97
2022-11-11T12:58:19.625Z,71.79
2022-11-11T13:00:56.955Z,71.40
2022-11-11T13:03:33.894Z,71.47
2022-11-11T13:06:05.978Z,70.79
2022-11-11T13:08:49.027Z,70.67
2022-11-11T13:11:26.143Z,71.15
2022-11-11T13:14:02.926Z,72.56
2022-11-11T13:16:30.854Z,72.98
2022-11-11T13:19:00.148Z,72.80
2022-11-11T13:21:33.217Z,73.83
2022-11-11T13:24:01.727Z,73.66
2022-11-11T13:26:40.110Z,73.59
2022-11-11T13:29:19.567Z,73.98
2022-11-11T13:31:48.826Z,74.88
2022-11-11T13:34:18.270Z,74.95
2022-11-11T13:36:50.116Z,74.75
2022-11-11T13:39:24.799Z,74.66
2022-11-11T13:41:58.163Z,74.96
2022-11-11T13:44:28.718Z,75.21
2022-11-11T13:47:04.780Z,75.25
2022-11-11T13:49:35.670Z,75.62
2022-11-11T13:52:05.719Z,75.67
2022-11-11T13:54:36.344Z,76.62
2022-11-11T13:57:08.068Z,76.67
2022-11-11T13:59:38.229Z,76.31
2022-11-11T14:02:27.283Z,76.95
2022-11-11T14:05:13.866Z,76.53
2022-11-11T14:07:54.785Z,77.16
2022-11-11T14:10:41.487Z,76.90
2022-11-11T14:13:32.503Z,77.27
2022-11-11T14:16:01.992Z,77.09
2022-11-11T14:18:40.773Z,77.45
2022-11-11T14:21:09.272Z,78.69
2022-11-11T14:23:37.894Z,78.65
2022-11-11T14:26:26.274Z,79.29
2022-11-11T14:28:55.285Z,79.54
2022-11-11T14:31:49.922Z,79.85
2022-11-11T14:34:28.936Z,80.21
2022-11-11T14:36:59.842Z,80.29
2022-11-11T14:39:33.876Z,80.61
2022-11-11T14:42:02.140Z,81.37
2022-11-11T14:44:40.430Z,81.53
2022-11-11T14:47:35.744Z,81.69
2022-11-11T14:50:25.364Z,82.06
2022-11-11T14:52:56.352Z,82.65
2022-11-11T14:55:26.739Z,82.27
2022-11-11T14:57:58.386Z,82.55
2022-11-11T15:00:27.280Z,82.93
2022-11-11T15:02:56.804Z,83.09
2022-11-11T15:05:32.381Z,83.54
2022-11-11T15:08:02.923Z,83.71
2022-11-11T15:10:39.461Z,84.18
2022-11-11T15:13:25.587Z,84.52
2022-11-11T15:15:57.935Z,84.66
2022-11-11T15:18:45.777Z,84.75
2022-11-11T15:21:21.921Z,85.27
2022-11-11T15:23:52.780Z,85.43
2022-11-11T15:26:24.999Z,85.68
2022-11-11T15:29:07.190Z,86.16
2022-11-11T15:31:37.945Z,86.41
2022-11-11T15:34:12.754Z,86.81
2022-11-11T15:36:51.740Z,87.38
2022-11-11T15:39:22.622Z,87.81
2022-11-11T15:41:51.643Z,88.20
2022-11-11T15:44:21.145Z,88.57
2022-11-11T15:46:50.302Z,89.03
2022-11-11T15:49:35.132Z,89.04
2022-11-11T15:52:04.718Z,89.73
2022-11-11T15:54:34.192Z,90.14
2022-11-11T15:57:15.182Z,90.52
2022-11-11T15:59:43.598Z,90.53
2022-11-11T16:02:15.750Z,90.73
2022-11-11T16:04:55.424Z,91.24
2022-11-11T16:07:28.632Z,91.37
2022-11-11T16:09:59.418Z,91.37
2022-11-11T16:12:30.810Z,91.69
2022-11-11T16:14:59.691Z,92.12
2022-11-11T16:17:30.667Z,92.13
2022-11-11T16:19:59.648Z,92.28
2022-11-11T16:22:30.688Z,92.59
2022-11-11T16:24:59.717Z,93.05
2022-11-11T16:27:30.103Z,93.00
2022-11-11T16:30:15.740Z,93.34
2022-11-11T16:32:44.177Z,93.62
2022-11-11T16:35:25.503Z,93.53
2022-11-11T16:37:56.631Z,93.93
2022-11-11T16:40:29.983Z,94.23
2022-11-11T16:43:13.180Z,94.62
2022-11-11T16:45:47.983Z,94.66
2022-11-11T16:48:51.012Z,94.73
2022-11-11T16:51:24.262Z,94.89
2022-11-11T16:53:56.500Z,95.27
2022-11-11T16:56:27.040Z,94.96
2022-11-11T16:59:01.908Z,94.60
2022-11-11T17:01:30.667Z,94.60
2022-11-11T17:03:59.709Z,94.93
2022-11-11T17:06:47.585Z,95.27
2022-11-11T17:09:30.185Z,95.36
2022-11-11T17:11:58.598Z,95.29
2022-11-11T17:14:29.018Z,96.26
2022-11-11T17:16:58.483Z,96.22
2022-11-11T17:19:28.017Z,96.58
2022-11-11T17:22:05.181Z,96.37
2022-11-11T17:24:34.693Z,96.17
2022-11-11T17:27:03.493Z,96.28
2022-11-11T17:29:37.381Z,96.49
2022-11-11T17:32:06.678Z,96.90
2022-11-11T17:34:39.230Z,96.68
2022-11-11T17:37:09.339Z,97.08
2022-11-11T17:39:45.403Z,97.33
2022-11-11T17:42:14.397Z,96.29
2022-11-11T17:44:42.388Z,95.80
2022-11-11T17:47:14.062Z,96.76
2022-11-11T17:50:01.519Z,96.97
2022-11-11T17:52:29.685Z,97.49
2022-11-11T17:54:59.338Z,97.80
2022-11-11T17:57:27.751Z,97.83
2022-11-11T17:59:56.466Z,97.17
2022-11-11T18:02:26.701Z,96.83
2022-11-11T18:04:58.097Z,96.67
2022-11-11T18:07:27.035Z,96.76
2022-11-11T18:09:55.156Z,97.34
2022-11-11T18:12:24.660Z,97.54
2022-11-11T18:14:57.763Z,98.06
2022-11-11T18:17:26.715Z,98.62
2022-11-11T18:19:54.777Z,98.71
2022-11-11T18:22:25.010Z,98.38
2022-11-11T18:24:52.924Z,98.19
2022-11-11T18:27:21.794Z,98.30
2022-11-11T18:29:55.744Z,98.30
2022-11-11T18:32:24.095Z,97.34
2022-11-11T18:34:53.170Z,97.34
2022-11-11T18:37:21.860Z,97.45
2022-11-11T18:39:50.776Z,97.65
2022-11-11T18:42:19.745Z,98.20
2022-11-11T18:44:49.347Z,97.65
2022-11-11T18:47:19.951Z,97.79
2022-11-11T18:49:49.403Z,97.49
2022-11-11T18:52:17.506Z,96.73
2022-11-11T18:54:45.759Z,96.29
2022-11-11T18:57:14.495Z,96.30
2022-11-11T18:59:42.973Z,96.69
2022-11-11T19:02:13.043Z,97.15
2022-11-11T19:04:43.113Z,97.53
2022-11-11T19:07:12.235Z,97.77
2022-11-11T19:09:42.128Z,98.53
2022-11-11T19:12:11.139Z,98.58
2022-11-11T19:14:40.330Z,99.02
2022-11-11T19:17:10.739Z,98.63
2022-11-11T19:19:39.640Z,98.80
2022-11-11T19:22:09.731Z,98.78
2022-11-11T19:24:39.067Z,98.49
2022-11-11T19:27:07.210Z,98.31
2022-11-11T19:29:37.438Z,98.48
2022-11-11T19:32:08.849Z,98.39
2022-11-11T19:34:37.109Z,98.24
2022-11-11T19:37:09.673Z,98.50
2022-11-11T19:39:42.122Z,98.38
2022-11-11T19:42:10.459Z,98.45
2022-11-11T19:44:40.274Z,98.18
2022-11-11T19:47:08.174Z,97.96
2022-11-11T19:49:36.367Z,97.81
2022-11-11T19:52:04.550Z,97.09
2022-11-11T19:54:32.759Z,96.08
2022-11-11T19:57:02.658Z,96.44
2022-11-11T19:59:31.075Z,96.16
2022-11-11T20:01:59.790Z,96.27
2022-11-11T20:04:30.388Z,96.31
2022-11-11T20:06:58.797Z,96.06
2022-11-11T20:09:26.797Z,96.60
2022-11-11T20:11:55.826Z,97.29
2022-11-11T20:14:25.807Z,97.54
2022-11-11T20:16:54.627Z,97.86
2022-11-11T20:19:23.553Z,97.86
2022-11-11T20:21:51.982Z,98.01
2022-11-11T20:24:19.922Z,97.94
2022-11-11T20:26:52.466Z,98.13
2022-11-11T20:29:20.871Z,98.27
2022-11-11T20:31:52.237Z,98.42
2022-11-11T20:34:21.802Z,98.62
2022-11-11T20:36:52.391Z,98.61
2022-11-11T20:39:21.399Z,98.93
2022-11-11T20:41:52.253Z,98.99
2022-11-11T20:44:20.862Z,98.46
2022-11-11T20:46:52.843Z,98.55
2022-11-11T20:49:21.418Z,98.78
2022-11-11T20:51:49.514Z,99.32
2022-11-11T20:54:17.445Z,99.78
2022-11-11T20:56:47.876Z,99.81
2022-11-11T20:59:16.726Z,99.99
2022-11-11T21:01:45.451Z,99.99
2022-11-11T21:04:15.279Z,99.99
2022-11-11T21:06:43.469Z,99.90
2022-11-11T21:09:12.803Z,99.99
2022-11-11T21:11:41.077Z,99.99
2022-11-11T21:14:10.290Z,99.99
2022-11-11T21:16:39.211Z,99.99
2022-11-11T21:19:08.329Z,99.99
2022-11-11T21:21:38.199Z,99.99
2022-11-11T21:24:11.224Z,99.99
2022-11-11T21:26:39.827Z,99.99
2022-11-11T21:29:07.918Z,99.99
2022-11-11T21:31:39.537Z,99.99
2022-11-11T21:34:10.187Z,99.99
2022-11-11T21:36:41.605Z,99.99
2022-11-11T21:39:10.888Z,99.99
2022-11-11T21:41:40.368Z,99.99
2022-11-11T21:44:09.410Z,99.99
2022-11-11T21:46:37.970Z,99.99
2022-11-11T21:49:06.817Z,99.99
2022-11-11T21:51:36.047Z,99.99
2022-11-11T21:54:07.402Z,99.99
2022-11-11T21:56:36.865Z,99.99
2022-11-11T21:59:06.898Z,99.99
2022-11-11T22:01:36.098Z,99.99
2022-11-11T22:04:06.290Z,99.99
2022-11-11T22:06:35.059Z,99.99
2022-11-11T22:09:05.609Z,99.99
2022-11-11T22:11:35.061Z,99.99
2022-11-11T22:14:04.858Z,99.99
2022-11-11T22:16:33.572Z,99.99
2022-11-11T22:19:02.719Z,99.99
2022-11-11T22:21:33.879Z,99.99
2022-11-11T22:24:03.009Z,99.99
2022-11-11T22:26:34.638Z,99.99
2022-11-11T22:29:03.836Z,99.99
2022-11-11T22:31:34.588Z,99.99
2022-11-11T22:34:03.267Z,99.99
2022-11-11T22:36:32.173Z,99.99
2022-11-11T22:39:00.465Z,99.99
2022-11-11T22:41:29.369Z,99.99
2022-11-11T22:44:00.609Z,99.99
2022-11-11T22:46:29.712Z,99.99
2022-11-11T22:48:59.754Z,99.99
2022-11-11T22:51:29.751Z,99.99
2022-11-11T22:53:58.866Z,99.99
2022-11-11T22:56:27.779Z,99.99
2022-11-11T22:58:56.130Z,99.99
2022-11-11T23:01:30.003Z,99.99
2022-11-11T23:03:59.598Z,99.99
2022-11-11T23:06:29.390Z,99.99
2022-11-11T23:08:57.944Z,99.99
2022-11-11T23:11:26.648Z,99.99
2022-11-11T23:13:58.364Z,99.99
2022-11-11T23:16:29.121Z,99.99
2022-11-11T23:18:57.049Z,99.99
2022-11-11T23:21:27.691Z,99.99
2022-11-11T23:23:59.041Z,99.99
2022-11-11T23:26:28.097Z,99.99
2022-11-11T23:28:59.765Z,99.99
2022-11-11T23:31:38.394Z,99.99
2022-11-11T23:34:09.985Z,99.99
2022-11-11T23:36:38.854Z,99.99
2022-11-11T23:39:09.977Z,99.99
2022-11-11T23:41:39.864Z,99.99
2022-11-11T23:44:12.694Z,99.99
2022-11-11T23:46:42.101Z,99.99
2022-11-11T23:49:11.860Z,99.99
2022-11-11T23:51:44.004Z,99.99
2022-11-11T23:54:16.774Z,99.99
2022-11-11T23:56:46.780Z,99.99
2022-11-11T23:59:17.205Z,99.99
